Time;durP1;ratioP1;P1;durP2;ratioP2;P2;SDS_P1;SDS_P2;PMS_P1;PMS_P2;Temp;Humidity;BMP_temperature;BMP_pressure;BME280_temperature;BME280_humidity;BME280_pressure;Samples;Min_cycle;Max_cycle;Signal;HPM_P1;HPM_P2
2022/09/22 00:01:16;;;;;;;9.80;5.85;;;;;;;14.57;56.28;102419.25;5091327;28;20055;-64
2022/09/22 00:03:48;;;;;;;10.90;6.20;;;;;;;14.55;56.08;102415.91;5101776;28;20076;-64
2022/09/22 00:06:17;;;;;;;11.35;6.22;;;;;;;14.53;56.16;102412.59;5111568;28;20044;-64
2022/09/22 00:08:48;;;;;;;9.18;6.35;;;;;;;14.52;56.15;102409.03;5104640;28;20135;-64
2022/09/22 00:11:19;;;;;;;8.32;5.50;;;;;;;14.51;55.90;102407.38;5104303;28;20390;-64
2022/09/22 00:13:49;;;;;;;8.23;5.57;;;;;;;14.50;56.14;102410.28;5102048;28;20044;-64
2022/09/22 00:16:19;;;;;;;10.48;5.70;;;;;;;14.49;56.12;102405.94;5094065;28;20051;-64
2022/09/22 00:18:49;;;;;;;9.75;6.22;;;;;;;14.47;56.14;102403.44;5094150;28;20107;-64
2022/09/22 00:21:18;;;;;;;10.70;5.80;;;;;;;14.45;55.83;102405.50;5096656;28;20139;-64
2022/09/22 00:23:47;;;;;;;8.65;6.00;;;;;;;14.44;56.08;102405.72;5095741;28;20048;-64
2022/09/22 00:26:20;;;;;;;10.60;5.78;;;;;;;14.44;55.82;102411.13;5098477;28;20051;-64
2022/09/22 00:28:50;;;;;;;10.02;6.00;;;;;;;14.42;56.16;102396.97;5103370;28;20052;-64
2022/09/22 00:31:19;;;;;;;10.48;5.95;;;;;;;14.41;55.90;102408.81;5092151;28;20044;-64
2022/09/22 00:33:50;;;;;;;9.57;6.40;;;;;;;14.40;55.88;102404.44;5101668;28;20048;-64
2022/09/22 00:36:20;;;;;;;8.88;6.25;;;;;;;14.39;56.11;102402.78;5100128;28;20046;-64
2022/09/22 00:38:49;;;;;;;9.65;6.50;;;;;;;14.37;56.04;102404.88;5102078;28;20131;-64
2022/09/22 00:41:19;;;;;;;8.70;6.15;;;;;;;14.36;56.00;102409.44;5097998;28;20044;-64
2022/09/22 00:43:49;;;;;;;9.18;6.00;;;;;;;14.35;55.77;102402.38;5107163;28;20056;-64
2022/09/22 00:46:20;;;;;;;9.85;6.10;;;;;;;14.33;55.77;102399.88;5092495;28;20094;-64
2022/09/22 00:48:55;;;;;;;11.40;6.65;;;;;;;14.32;55.65;102398.22;5097772;28;20206;-64
2022/09/22 00:51:27;;;;;;;10.05;6.43;;;;;;;14.32;55.66;102397.38;5091853;28;20203;-64
2022/09/22 00:53:57;;;;;;;12.00;6.38;;;;;;;14.31;55.69;102393.84;5102303;28;20044;-64
2022/09/22 00:56:28;;;;;;;12.63;6.43;;;;;;;14.29;55.99;102395.91;5102899;28;20150;-64
2022/09/22 00:59:00;;;;;;;9.70;6.43;;;;;;;14.27;55.69;102395.28;5098418;28;20040;-64
2022/09/22 01:01:28;;;;;;;11.70;6.38;;;;;;;14.27;55.76;102395.28;5096528;28;20337;-64
2022/09/22 01:03:57;;;;;;;10.73;5.80;;;;;;;14.26;55.69;102400.91;5105046;28;20043;-64
2022/09/22 01:06:28;;;;;;;11.02;6.55;;;;;;;14.24;55.79;102390.31;5096262;28;20056;-64
2022/09/22 01:08:57;;;;;;;8.88;6.00;;;;;;;14.22;55.94;102378.88;5103794;28;20052;-64
2022/09/22 01:11:26;;;;;;;11.85;6.28;;;;;;;14.15;55.74;102371.78;5099149;28;20050;-64
2022/09/22 01:14:04;;;;;;;9.05;6.50;;;;;;;14.20;56.03;102375.53;5103258;28;20052;-64
2022/09/22 01:16:45;;;;;;;9.57;6.18;;;;;;;14.19;55.67;102376.56;5097323;28;20043;-64
2022/09/22 01:19:38;;;;;;;11.77;6.68;;;;;;;14.18;55.89;102374.09;5100178;28;20048;-64
2022/09/22 01:22:24;;;;;;;12.15;6.32;;;;;;;14.15;55.72;102367.22;5106806;28;20047;-64
2022/09/22 01:25:13;;;;;;;9.50;6.22;;;;;;;14.15;55.93;102360.97;5096558;28;20055;-64
2022/09/22 01:28:21;;;;;;;10.80;6.05;;;;;;;14.11;55.85;102365.97;5103685;28;20052;-64
2022/09/22 01:30:57;;;;;;;10.07;6.13;;;;;;;14.11;56.12;102365.97;5047582;28;20067;-64
2022/09/22 01:33:35;;;;;;;11.97;6.33;;;;;;;14.09;55.96;102359.09;5046913;28;20132;-64
2022/09/22 01:36:24;;;;;;;10.40;6.00;;;;;;;14.07;55.99;102366.59;5045941;28;20304;-64
2022/09/22 01:39:01;;;;;;;12.98;6.40;;;;;;;14.06;55.74;102370.34;5050892;28;20573;-64
2022/09/22 01:41:57;;;;;;;10.15;6.70;;;;;;;14.05;55.78;102357.84;5050417;28;20605;-64
2022/09/22 01:44:31;;;;;;;8.70;5.82;;;;;;;14.02;55.85;102362.63;5036578;28;20044;-64
2022/09/22 01:47:07;;;;;;;9.30;6.03;;;;;;;14.01;55.73;102360.16;5050352;28;20059;-64
2022/09/22 01:49:40;;;;;;;13.35;6.63;;;;;;;14.00;55.95;102355.78;5049707;28;20049;-63
2022/09/22 01:52:15;;;;;;;9.98;6.25;;;;;;;14.00;56.09;102356.59;5041971;28;20346;-64
2022/09/22 01:54:46;;;;;;;9.48;5.45;;;;;;;13.99;55.84;102354.94;5042741;28;20588;-64
2022/09/22 01:57:20;;;;;;;9.80;6.07;;;;;;;13.96;55.73;102344.53;5050311;28;20163;-64
2022/09/22 01:59:53;;;;;;;10.95;5.60;;;;;;;13.96;55.73;102351.81;5044973;28;20053;-64
2022/09/22 02:02:28;;;;;;;9.15;6.40;;;;;;;13.93;55.75;102349.53;5055027;28;20051;-64
2022/09/22 02:05:01;;;;;;;11.55;5.43;;;;;;;13.92;55.54;102347.88;5051001;28;20045;-64
2022/09/22 02:07:32;;;;;;;9.25;5.93;;;;;;;13.91;55.64;102346.22;5094751;28;20059;-64
2022/09/22 02:10:05;;;;;;;9.45;6.00;;;;;;;13.90;56.03;102339.13;5093009;28;20123;-64
2022/09/22 02:12:34;;;;;;;6.82;5.18;;;;;;;13.87;55.63;102340.38;5102020;28;20131;-64
2022/09/22 02:15:02;;;;;;;11.15;6.40;;;;;;;13.87;55.55;102339.56;5099264;28;20052;-64
2022/09/22 02:17:32;;;;;;;9.45;5.68;;;;;;;13.85;55.66;102328.97;5109867;28;20115;-64
2022/09/22 02:20:05;;;;;;;9.82;6.00;;;;;;;13.84;55.57;102340.00;5101172;28;20060;-64
2022/09/22 02:22:32;;;;;;;8.98;6.10;;;;;;;13.83;55.81;102324.81;5103493;28;20044;-64
2022/09/22 02:25:00;;;;;;;10.10;6.75;;;;;;;13.81;56.06;102333.13;5103431;28;20056;-64
2022/09/22 02:27:35;;;;;;;9.30;6.10;;;;;;;13.81;55.71;102316.09;5095505;28;20047;-64
2022/09/22 02:30:07;;;;;;;8.95;5.97;;;;;;;13.79;56.10;102323.56;5098957;28;20040;-64
2022/09/22 02:32:40;;;;;;;11.10;6.25;;;;;;;13.78;55.67;102320.03;5104625;28;20040;-64
2022/09/22 02:35:09;;;;;;;9.90;5.78;;;;;;;13.78;55.97;102330.03;5101940;28;20048;-64
2022/09/22 02:37:41;;;;;;;9.90;5.97;;;;;;;13.67;56.01;102309.84;5094471;28;20055;-64
2022/09/22 02:40:15;;;;;;;10.63;5.85;;;;;;;13.75;55.54;102325.03;5094956;28;20135;-64
2022/09/22 02:42:48;;;;;;;7.38;5.47;;;;;;;13.74;56.08;102321.50;5096256;28;20111;-64
2022/09/22 02:45:22;;;;;;;10.75;6.20;;;;;;;13.74;55.80;102305.28;5093770;28;20040;-64
2022/09/22 02:47:56;;;;;;;8.85;5.78;;;;;;;13.72;55.61;102310.06;5094238;28;20047;-64
2022/09/22 02:50:27;;;;;;;7.97;5.63;;;;;;;13.72;55.80;102314.63;5090934;28;20148;-64
2022/09/22 02:53:01;;;;;;;8.63;5.90;;;;;;;13.70;55.74;102312.13;5093928;28;20059;-64
2022/09/22 02:55:29;;;;;;;9.75;5.80;;;;;;;13.68;55.64;102312.34;5094986;28;20051;-64
2022/09/22 02:57:57;;;;;;;12.88;6.15;;;;;;;13.66;55.60;102294.69;5097657;28;20040;-64
2022/09/22 03:00:25;;;;;;;11.63;5.97;;;;;;;13.65;55.59;102293.84;5098977;28;20568;-64
2022/09/22 03:02:54;;;;;;;7.65;5.20;;;;;;;13.65;56.02;102295.72;5098642;28;20059;-64
2022/09/22 03:05:22;;;;;;;8.60;5.90;;;;;;;13.64;55.79;102288.66;5106059;28;20071;-64
2022/09/22 03:07:50;;;;;;;6.05;4.63;;;;;;;13.64;55.44;102299.47;5106338;28;20057;-64
2022/09/22 03:10:18;;;;;;;9.80;4.95;;;;;;;13.62;55.48;102302.38;5091850;28;20044;-64
2022/09/22 03:12:46;;;;;;;8.60;5.32;;;;;;;13.61;55.98;102289.91;5100432;28;20044;-64
2022/09/22 03:15:33;;;;;;;9.85;5.68;;;;;;;13.59;55.74;102291.13;5094063;28;20074;-64
2022/09/22 03:18:03;;;;;;;7.45;5.70;;;;;;;13.58;55.42;102293.00;5110337;28;20044;-64
2022/09/22 03:20:30;;;;;;;9.05;5.47;;;;;;;13.57;55.43;102294.03;5093740;28;20052;-64
2022/09/22 03:22:58;;;;;;;7.93;5.65;;;;;;;13.47;55.56;102280.13;5105208;28;20046;-64
2022/09/22 03:25:26;;;;;;;9.65;5.47;;;;;;;13.56;55.78;102294.25;5104701;28;20477;-64
2022/09/22 03:27:54;;;;;;;14.32;5.80;;;;;;;13.53;56.04;102295.50;5104233;28;20045;-64
2022/09/22 03:30:21;;;;;;;7.85;5.38;;;;;;;13.51;56.06;102285.94;5095656;28;20048;-64
2022/09/22 03:32:49;;;;;;;8.52;5.70;;;;;;;13.49;56.02;102288.00;5102130;28;20474;-64
2022/09/22 03:35:18;;;;;;;8.25;5.53;;;;;;;13.47;55.52;102285.50;5106594;28;20458;-64
2022/09/22 03:37:46;;;;;;;9.32;5.57;;;;;;;13.47;55.91;102280.13;5105887;28;20051;-64
2022/09/22 03:40:14;;;;;;;7.75;5.35;;;;;;;13.45;55.54;102275.94;5104243;28;20436;-64
2022/09/22 03:42:42;;;;;;;9.68;5.43;;;;;;;13.45;55.86;102284.88;5102262;28;20040;-64
2022/09/22 03:45:11;;;;;;;7.63;5.05;;;;;;;13.43;55.76;102284.25;5093447;28;20116;-64
2022/09/22 03:47:39;;;;;;;7.75;5.45;;;;;;;13.42;55.86;102285.28;5110007;28;20095;-64
2022/09/22 03:50:07;;;;;;;9.80;5.88;;;;;;;13.41;55.53;102280.09;5107819;28;20044;-64
2022/09/22 03:52:38;;;;;;;7.72;5.68;;;;;;;13.39;55.59;102283.00;5103030;28;20047;-64
2022/09/22 03:55:08;;;;;;;10.30;4.97;;;;;;;13.38;55.81;102284.03;5098473;28;20602;-64
2022/09/22 03:57:35;;;;;;;7.28;4.97;;;;;;;13.38;55.58;102292.16;5105776;28;20066;-64
2022/09/22 04:00:04;;;;;;;7.32;5.30;;;;;;;13.29;55.85;102272.59;5108375;28;20054;-64
2022/09/22 04:02:32;;;;;;;7.10;4.85;;;;;;;13.34;55.39;102272.81;5094272;28;20394;-64
2022/09/22 04:05:00;;;;;;;7.65;5.13;;;;;;;13.35;55.89;102279.06;5092736;28;20060;-64
2022/09/22 04:07:27;;;;;;;8.35;5.07;;;;;;;13.33;55.42;102273.03;5109853;28;20044;-64
2022/09/22 04:09:57;;;;;;;7.35;4.85;;;;;;;13.32;55.90;102276.75;5095250;28;20052;-64
2022/09/22 04:12:25;;;;;;;7.03;5.07;;;;;;;13.30;55.50;102276.97;5101246;28;20052;-64
2022/09/22 04:14:52;;;;;;;6.43;4.60;;;;;;;13.29;55.51;102267.22;5094736;28;20048;-64
2022/09/22 04:17:20;;;;;;;7.63;4.57;;;;;;;13.27;55.59;102269.28;5101826;28;20051;-64
2022/09/22 04:19:48;;;;;;;10.48;5.45;;;;;;;13.26;55.75;102269.47;5094501;28;20395;-64
2022/09/22 04:22:16;;;;;;;10.13;5.53;;;;;;;13.26;55.84;102264.91;5103406;28;20047;-64
2022/09/22 04:24:44;;;;;;;8.07;4.80;;;;;;;13.26;55.61;102269.47;5099586;28;20047;-64
2022/09/22 04:27:13;;;;;;;9.80;4.95;;;;;;;13.24;55.64;102264.28;5097891;28;20040;-64
2022/09/22 04:29:48;;;;;;;8.07;4.80;;;;;;;13.22;55.63;102258.25;5089483;28;20052;-64
2022/09/22 04:32:16;;;;;;;7.28;5.03;;;;;;;13.24;55.57;102263.47;5102562;28;20040;-64
2022/09/22 04:34:44;;;;;;;10.98;6.32;;;;;;;13.21;55.19;102269.25;5103908;28;20055;-64
2022/09/22 04:37:12;;;;;;;8.15;4.90;;;;;;;13.19;55.56;102263.25;5107321;28;20512;-64
2022/09/22 04:39:40;;;;;;;7.28;4.78;;;;;;;13.19;55.30;102261.38;5097447;28;20043;-64
2022/09/22 04:42:08;;;;;;;7.03;4.47;;;;;;;13.17;55.28;102265.31;5101417;28;20048;-65
2022/09/22 04:44:37;;;;;;;6.30;4.43;;;;;;;13.16;55.46;102266.31;5100822;28;20071;-64
2022/09/22 04:47:05;;;;;;;9.85;5.78;;;;;;;13.14;55.30;102263.00;5103290;28;20416;-64
2022/09/22 04:49:33;;;;;;;9.35;5.25;;;;;;;13.14;55.58;102263.00;5098489;28;20040;-64
2022/09/22 04:52:01;;;;;;;7.70;5.03;;;;;;;13.13;55.24;102267.56;5099065;28;20446;-64
2022/09/22 04:54:29;;;;;;;11.27;5.50;;;;;;;13.10;55.69;102267.97;5097823;28;20044;-64
2022/09/22 04:56:57;;;;;;;7.45;5.20;;;;;;;13.10;55.27;102269.81;5102705;28;20457;-64
2022/09/22 04:59:25;;;;;;;5.72;4.35;;;;;;;13.09;55.25;102262.75;5099127;28;20058;-64
2022/09/22 05:01:54;;;;;;;6.90;4.75;;;;;;;13.09;55.67;102270.88;5096766;28;20271;-64
2022/09/22 05:04:21;;;;;;;8.68;5.00;;;;;;;13.06;55.52;102273.97;5098699;28;20070;-63
2022/09/22 05:06:49;;;;;;;9.07;4.63;;;;;;;13.06;55.30;102265.88;5107172;28;20051;-64
2022/09/22 05:09:19;;;;;;;11.43;4.97;;;;;;;13.04;55.54;102275.00;5100317;28;20044;-64
2022/09/22 05:11:48;;;;;;;7.57;4.78;;;;;;;13.03;55.63;102272.50;5108370;28;20138;-64
2022/09/22 05:14:16;;;;;;;7.65;5.20;;;;;;;13.02;55.41;102268.16;5095648;28;20130;-64
2022/09/22 05:16:49;;;;;;;8.48;5.18;;;;;;;13.01;55.66;102274.56;5093327;28;20099;-64
2022/09/22 05:19:18;;;;;;;8.77;5.05;;;;;;;12.97;55.49;102268.75;5098058;28;20394;-64
2022/09/22 05:21:46;;;;;;;9.10;5.10;;;;;;;12.89;55.67;102262.72;5094649;28;20056;-64
2022/09/22 05:24:14;;;;;;;7.75;4.53;;;;;;;12.97;55.25;102273.31;5088937;28;20040;-64
2022/09/22 05:26:42;;;;;;;7.68;5.00;;;;;;;12.95;55.29;102276.22;5097145;28;20048;-63
2022/09/22 05:29:10;;;;;;;7.82;4.90;;;;;;;12.94;55.26;102281.81;5098280;28;20074;-64
2022/09/22 05:31:38;;;;;;;10.52;5.22;;;;;;;12.95;55.16;102278.91;5102657;28;20050;-61
2022/09/22 05:34:05;;;;;;;6.65;4.38;;;;;;;12.93;55.65;102282.84;5102369;28;20044;-61
2022/09/22 05:36:35;;;;;;;11.63;5.75;;;;;;;12.92;55.60;102287.41;5105911;28;20040;-63
2022/09/22 05:39:03;;;;;;;6.63;4.82;;;;;;;12.89;55.32;102284.28;5094375;28;20049;-63
2022/09/22 05:41:30;;;;;;;7.35;4.90;;;;;;;12.87;55.78;102281.78;5106040;28;20052;-63
2022/09/22 05:43:58;;;;;;;10.38;5.07;;;;;;;12.88;55.50;102279.94;5101329;28;20044;-63
2022/09/22 05:46:26;;;;;;;7.10;4.68;;;;;;;12.85;55.30;102275.78;5095693;28;20046;-64
2022/09/22 05:48:54;;;;;;;9.37;4.63;;;;;;;12.86;55.25;102282.00;4035107;28;10021928;-64
2022/09/22 05:51:21;;;;;;;9.05;4.75;;;;;;;12.85;55.66;102283.03;4362726;28;10001104;-63
2022/09/22 05:53:52;;;;;;;7.53;4.65;;;;;;;12.82;55.54;102284.25;5069682;28;20306;-65
2022/09/22 05:56:20;;;;;;;10.82;5.10;;;;;;;12.81;55.77;102288.00;5073148;28;20048;-66
2022/09/22 05:58:47;;;;;;;9.02;4.47;;;;;;;12.81;55.30;102279.91;5072703;28;20074;-63
2022/09/22 06:01:15;;;;;;;9.30;4.82;;;;;;;12.80;55.86;102280.09;5048703;28;20053;-63
2022/09/22 06:03:43;;;;;;;8.95;5.40;;;;;;;12.79;55.57;102284.66;5055432;28;20448;-63
2022/09/22 06:06:11;;;;;;;8.50;4.53;;;;;;;12.69;55.62;102271.56;5061776;28;20048;-63
2022/09/22 06:08:39;;;;;;;7.18;4.72;;;;;;;12.77;55.77;102280.50;5075268;28;20049;-63
2022/09/22 06:11:14;;;;;;;6.43;4.10;;;;;;;12.76;55.59;102289.63;5062884;28;20045;-64
2022/09/22 06:13:43;;;;;;;7.50;4.68;;;;;;;12.74;55.98;102289.84;5076130;28;20041;-63
2022/09/22 06:16:13;;;;;;;10.75;5.63;;;;;;;12.71;56.27;102288.38;5073098;28;20128;-60
2022/09/22 06:18:41;;;;;;;8.35;4.82;;;;;;;12.69;56.13;102287.75;5079089;28;20126;-60
2022/09/22 06:21:09;;;;;;;7.10;4.70;;;;;;;12.70;56.34;102293.97;5074283;28;20051;-60
2022/09/22 06:23:37;;;;;;;7.28;4.57;;;;;;;12.70;56.50;102294.81;5084509;28;20048;-66
2022/09/22 06:26:10;;;;;;;7.05;4.35;;;;;;;12.69;56.36;102290.44;5093606;28;20045;-60
2022/09/22 06:28:39;;;;;;;6.40;4.28;;;;;;;12.69;56.48;102287.75;5101268;28;20071;-61
2022/09/22 06:31:07;;;;;;;7.72;4.47;;;;;;;12.69;56.21;102279.66;5096195;28;20044;-60
2022/09/22 06:33:35;;;;;;;7.97;4.40;;;;;;;12.70;56.47;102283.19;5101386;28;20047;-60
2022/09/22 06:36:03;;;;;;;6.68;4.47;;;;;;;12.71;56.62;102282.97;5124434;28;20127;-59
2022/09/22 06:38:31;;;;;;;9.35;4.25;;;;;;;12.73;56.47;102290.88;5122167;28;20051;-60
2022/09/22 06:41:00;;;;;;;7.55;5.00;;;;;;;12.64;56.69;102271.31;5123101;28;20051;-60
2022/09/22 06:43:28;;;;;;;7.22;4.35;;;;;;;12.73;56.84;102290.03;5118430;28;20062;-59
2022/09/22 06:46:01;;;;;;;6.43;4.22;;;;;;;12.65;56.63;102274.84;5118402;28;20055;-60
2022/09/22 06:48:30;;;;;;;5.25;3.80;;;;;;;12.74;56.88;102284.44;5120604;28;20056;-60
2022/09/22 06:50:58;;;;;;;7.93;3.92;;;;;;;12.75;56.71;102291.50;5121817;28;20115;-60
2022/09/22 06:53:26;;;;;;;8.30;4.18;;;;;;;12.76;56.91;102286.94;5109047;28;20473;-60
2022/09/22 06:55:54;;;;;;;6.80;4.20;;;;;;;12.76;57.10;102286.94;5125259;28;20059;-60
2022/09/22 06:58:22;;;;;;;9.20;4.40;;;;;;;12.76;57.28;102285.06;5120578;28;20065;-60
2022/09/22 07:00:52;;;;;;;10.23;4.13;;;;;;;12.75;57.19;102286.09;5118595;28;20052;-60
2022/09/22 07:03:25;;;;;;;8.85;4.57;;;;;;;12.75;57.38;102285.28;5123607;28;20052;-60
2022/09/22 07:05:54;;;;;;;8.18;4.32;;;;;;;12.75;57.08;102278.00;5117856;28;20063;-60
2022/09/22 07:08:23;;;;;;;10.10;4.53;;;;;;;12.78;57.38;102277.59;5125410;27;20050;-60
2022/09/22 07:10:55;;;;;;;8.77;4.65;;;;;;;12.81;57.48;102270.97;5125077;28;20047;-59
2022/09/22 07:13:23;;;;;;;9.30;4.85;;;;;;;12.72;57.47;102259.53;5114801;27;20054;-60
2022/09/22 07:15:51;;;;;;;10.35;4.78;;;;;;;12.83;57.32;102272.44;5113599;27;20551;-60
2022/09/22 07:18:19;;;;;;;7.47;4.72;;;;;;;12.73;57.56;102257.66;5124569;27;20073;-60
2022/09/22 07:20:48;;;;;;;7.28;3.95;;;;;;;12.84;57.62;102271.41;5125186;27;20052;-60
2022/09/22 07:23:20;;;;;;;9.18;4.40;;;;;;;12.87;57.63;102270.16;5119920;27;20411;-60
2022/09/22 07:25:55;;;;;;;8.15;4.35;;;;;;;12.84;57.34;102274.09;5124217;28;20058;-60
2022/09/22 07:28:24;;;;;;;7.80;3.92;;;;;;;12.84;57.84;102266.00;5122169;27;20082;-60
2022/09/22 07:30:52;;;;;;;7.38;4.40;;;;;;;12.85;57.60;102266.84;5122512;28;20055;-60
2022/09/22 07:33:20;;;;;;;11.68;4.20;;;;;;;12.88;57.84;102269.13;5124189;28;20055;-60
2022/09/22 07:35:49;;;;;;;8.05;4.28;;;;;;;12.88;57.65;102269.13;5127977;27;20343;-59
2022/09/22 07:38:18;;;;;;;8.00;4.40;;;;;;;12.89;57.86;102270.81;5122964;28;20067;-60
2022/09/22 07:40:52;;;;;;;10.40;4.00;;;;;;;12.88;57.77;102271.84;5116632;28;20564;-59
2022/09/22 07:43:20;;;;;;;7.43;4.55;;;;;;;12.89;57.85;102273.50;5125216;27;20048;-59
2022/09/22 07:45:54;;;;;;;7.55;3.97;;;;;;;12.89;57.41;102274.34;5124064;27;20046;-58
2022/09/22 07:48:41;;;;;;;7.47;3.80;;;;;;;12.89;57.68;102266.22;5114222;27;20054;-58
2022/09/22 07:51:12;;;;;;;7.95;3.95;;;;;;;12.93;57.52;102278.28;5117691;27;20067;-58
2022/09/22 07:53:44;;;;;;;5.57;3.72;;;;;;;12.96;57.28;102274.34;5131578;27;20055;-58
2022/09/22 07:56:14;;;;;;;6.38;4.00;;;;;;;12.95;57.41;102267.28;5122192;27;20100;-59
2022/09/22 07:58:46;;;;;;;6.50;3.22;;;;;;;12.94;57.22;102265.63;5118682;27;20051;-59
2022/09/22 08:01:16;;;;;;;5.55;3.70;;;;;;;12.95;57.43;102270.00;5107804;27;20111;-58
2022/09/22 08:03:46;;;;;;;4.35;2.95;;;;;;;12.95;57.22;102265.44;5119848;27;20047;-58
2022/09/22 08:06:18;;;;;;;5.22;3.22;;;;;;;12.97;57.40;102267.91;5119421;28;20110;-58
2022/09/22 08:08:51;;;;;;;12.15;3.85;;;;;;;12.98;57.57;102256.94;5119107;27;20059;-58
2022/09/22 08:11:20;;;;;;;7.43;4.38;;;;;;;12.90;57.43;102243.63;5118857;28;20078;-58
2022/09/22 08:13:50;;;;;;;5.00;3.03;;;;;;;13.00;57.46;102259.41;5123502;28;20048;-58
2022/09/22 08:16:18;;;;;;;5.00;2.97;;;;;;;13.00;57.29;102260.25;5120473;28;20056;-59
2022/09/22 08:18:50;;;;;;;11.40;3.92;;;;;;;13.02;57.62;102254.66;5115028;28;20102;-58
2022/09/22 08:21:19;;;;;;;5.53;2.97;;;;;;;13.03;57.74;102261.72;5121901;28;20082;-58
2022/09/22 08:23:51;;;;;;;3.97;3.08;;;;;;;13.00;57.87;102257.56;5120333;27;20050;-58
2022/09/22 08:26:20;;;;;;;7.82;3.72;;;;;;;12.97;57.50;102249.88;5119542;28;20069;-58
2022/09/22 08:28:51;;;;;;;5.03;3.00;;;;;;;12.97;58.05;102254.44;5116688;28;20055;-58
2022/09/22 08:31:20;;;;;;;5.18;3.03;;;;;;;12.96;57.79;102250.91;5121871;27;20051;-58
2022/09/22 08:33:50;;;;;;;4.93;3.17;;;;;;;12.99;58.32;102247.78;5121561;27;20050;-59
2022/09/22 08:36:20;;;;;;;5.55;3.15;;;;;;;13.02;58.87;102252.78;5119649;28;20040;-62
2022/09/22 08:38:49;;;;;;;5.38;3.10;;;;;;;13.04;58.09;102253.41;5118879;28;20051;-62
2022/09/22 08:41:26;;;;;;;4.65;2.97;;;;;;;13.09;58.32;102241.16;5112839;28;20055;-62
2022/09/22 08:43:56;;;;;;;4.15;3.05;;;;;;;13.10;58.46;102245.53;5123113;28;20048;-62
2022/09/22 08:46:28;;;;;;;4.55;3.38;;;;;;;13.11;58.23;102250.72;5118806;28;20056;-62
2022/09/22 08:51:54;;;;;;;5.15;3.00;;;;;;;13.18;57.94;102248.06;5122784;28;20074;-62
2022/09/22 08:54:26;;;;;;;6.43;3.00;;;;;;;13.20;58.46;102254.09;5109146;28;20036;-62
2022/09/22 08:57:20;;;;;;;5.78;3.03;;;;;;;13.19;58.30;102247.03;5120232;28;20052;-62
2022/09/22 08:59:53;;;;;;;7.05;3.35;;;;;;;13.21;58.13;102251.19;5116154;27;20062;-62
2022/09/22 09:02:37;;;;;;;4.70;3.13;;;;;;;13.22;58.70;102260.13;5113432;28;20047;-62
2022/09/22 09:06:00;;;;;;;9.23;2.90;;;;;;;13.29;59.10;102258.28;5117091;27;20051;-65
2022/09/22 09:08:49;;;;;;;10.20;3.22;;;;;;;13.41;58.92;102251.22;5115173;27;20492;-63
2022/09/22 09:11:30;;;;;;;7.57;3.28;;;;;;;13.48;58.21;102254.75;5112160;28;20043;-63
2022/09/22 09:14:12;;;;;;;4.57;2.30;;;;;;;13.44;58.24;102248.13;5122364;28;20051;-63
2022/09/22 09:16:46;;;;;;;3.72;2.42;;;;;;;13.53;58.48;102257.69;5114761;28;20057;-63
2022/09/22 09:19:18;;;;;;;3.78;2.40;;;;;;;13.52;58.67;102260.59;5110867;28;20055;-63
2022/09/22 09:21:51;;;;;;;4.40;2.65;;;;;;;13.50;58.65;102251.84;5121626;27;20047;-64
2022/09/22 09:24:30;;;;;;;4.90;2.30;;;;;;;13.49;59.02;102253.72;5132787;27;20055;-63
2022/09/22 09:27:23;;;;;;;4.30;2.40;;;;;;;13.47;59.03;102255.81;5118866;28;20417;-63
2022/09/22 09:30:00;;;;;;;6.40;2.53;;;;;;;13.47;59.25;102250.41;5118967;27;20576;-63
2022/09/22 09:32:36;;;;;;;7.00;2.63;;;;;;;13.47;59.04;102250.41;5118030;28;20069;-63
2022/09/22 09:35:06;;;;;;;4.45;2.25;;;;;;;13.50;59.47;102254.56;5120437;27;20047;-62
2022/09/22 09:37:34;;;;;;;4.55;2.28;;;;;;;13.53;59.30;102260.38;5120425;27;20103;-63
2022/09/22 09:40:05;;;;;;;4.57;2.33;;;;;;;13.55;59.34;102249.38;5117547;28;20480;-63
2022/09/22 09:42:35;;;;;;;3.97;2.00;;;;;;;13.57;59.58;102248.13;5119108;28;20075;-63
2022/09/22 09:45:04;;;;;;;3.08;2.10;;;;;;;13.53;59.71;102243.34;5122419;27;20048;-63
2022/09/22 09:47:47;;;;;;;7.63;2.35;;;;;;;13.62;59.43;102252.91;5119960;28;20196;-63
2022/09/22 09:50:15;;;;;;;3.35;2.20;;;;;;;13.64;59.53;102258.94;5113543;27;20085;-63
2022/09/22 09:52:45;;;;;;;3.83;2.33;;;;;;;13.66;59.64;102248.75;5117916;28;20542;-63
2022/09/22 09:55:24;;;;;;;3.95;2.42;;;;;;;13.70;60.45;102247.28;5121030;28;20487;-64
2022/09/22 09:58:06;;;;;;;4.82;2.33;;;;;;;13.74;60.12;102245.00;5113339;28;20048;-64
2022/09/22 10:00:51;;;;;;;2.72;1.90;;;;;;;13.75;60.28;102234.00;5120775;27;20066;-64
2022/09/22 10:03:25;;;;;;;2.85;1.90;;;;;;;13.82;59.95;102232.13;5116829;27;20051;-64
2022/09/22 10:05:59;;;;;;;7.00;2.20;;;;;;;13.82;59.89;102224.00;5115431;27;20075;-62
2022/09/22 10:08:30;;;;;;;2.47;1.83;;;;;;;13.88;59.64;102227.72;5117827;28;20067;-63
2022/09/22 10:11:00;;;;;;;4.90;2.55;;;;;;;13.92;59.91;102227.09;5118631;27;20048;-63
2022/09/22 10:13:31;;;;;;;4.88;2.10;;;;;;;13.96;59.76;102224.78;5106433;28;20044;-63
2022/09/22 10:16:06;;;;;;;4.68;2.40;;;;;;;13.98;59.57;102222.69;5100406;28;20056;-63
2022/09/22 10:18:36;;;;;;;3.63;2.00;;;;;;;14.02;59.83;102226.66;5110967;27;20394;-63
2022/09/22 10:21:07;;;;;;;5.40;2.17;;;;;;;14.06;60.12;102221.66;5111726;28;20086;-63
2022/09/22 10:23:35;;;;;;;3.42;2.20;;;;;;;14.11;60.00;102221.84;5111909;28;20400;-63
2022/09/22 10:26:25;;;;;;;3.47;1.90;;;;;;;14.14;59.80;102216.00;5100375;28;20054;-63
2022/09/22 10:29:17;;;;;;;3.47;1.90;;;;;;;14.20;60.25;102215.16;5109299;28;20048;-63
2022/09/22 10:32:12;;;;;;;4.82;1.90;;;;;;;14.25;60.16;102218.06;5103619;28;20052;-62
2022/09/22 10:34:43;;;;;;;3.38;1.70;;;;;;;14.28;60.28;102215.78;5117586;28;20051;-62
2022/09/22 10:37:17;;;;;;;3.80;1.75;;;;;;;14.32;59.61;102205.34;5119055;28;20054;-63
2022/09/22 10:39:48;;;;;;;3.17;2.10;;;;;;;14.34;60.02;102197.84;5113910;28;20048;-63
2022/09/22 10:42:27;;;;;;;2.75;1.67;;;;;;;14.38;59.70;102201.78;5132282;28;20668;-62
2022/09/22 10:45:01;;;;;;;2.47;1.60;;;;;;;14.41;59.03;102187.84;5101339;28;20043;-62
2022/09/22 10:47:46;;;;;;;4.03;1.58;;;;;;;14.43;58.83;102201.19;5106203;28;20059;-62
2022/09/22 10:50:30;;;;;;;3.10;1.75;;;;;;;14.48;59.66;102193.25;5106575;28;20044;-62
2022/09/22 10:53:10;;;;;;;3.72;1.88;;;;;;;14.54;60.10;102195.09;5120123;28;20295;-63
2022/09/22 10:55:48;;;;;;;3.13;1.50;;;;;;;14.51;59.44;102182.84;5111614;28;20048;-63
2022/09/22 10:58:45;;;;;;;4.75;1.85;;;;;;;14.65;59.83;102194.44;5116579;28;20050;-63
2022/09/22 11:01:29;;;;;;;2.67;1.30;;;;;;;14.69;60.41;102187.53;5115362;28;20479;-62
2022/09/22 11:04:22;;;;;;;4.20;1.77;;;;;;;14.74;59.62;102185.00;5115849;28;20069;-62
2022/09/22 11:12:53;;;;;;;3.60;1.50;;;;;;;14.83;59.22;102177.47;5117079;28;20057;-62
2022/09/22 11:15:44;;;;;;;2.50;1.42;;;;;;;14.88;59.90;102178.47;5118157;28;20596;-62
2022/09/22 11:18:33;;;;;;;2.85;1.30;;;;;;;14.92;59.74;102185.13;5117775;28;20062;-62
2022/09/22 11:21:19;;;;;;;2.13;1.27;;;;;;;14.93;59.58;102178.66;5112563;28;20051;-63
2022/09/22 11:24:13;;;;;;;1.38;1.23;;;;;;;14.97;59.08;102179.88;5119713;28;20051;-62
2022/09/22 11:26:47;;;;;;;3.95;1.67;;;;;;;15.01;59.40;102171.31;5116300;28;20700;-62
2022/09/22 11:29:36;;;;;;;2.90;1.40;;;;;;;15.01;58.27;102168.59;5117279;28;20043;-63
2022/09/22 11:32:13;;;;;;;1.10;1.00;;;;;;;15.05;59.11;102170.66;5113379;28;20051;-63
2022/09/22 11:34:59;;;;;;;4.00;1.50;;;;;;;15.08;59.74;102162.09;5115022;28;20063;-62
2022/09/22 11:37:42;;;;;;;2.25;1.52;;;;;;;15.12;59.61;102166.03;5117495;28;20048;-62
2022/09/22 11:40:35;;;;;;;2.92;1.70;;;;;;;15.14;58.60;102163.94;5121272;28;20130;-63
2022/09/22 11:43:19;;;;;;;3.72;1.55;;;;;;;15.17;59.55;102160.78;5116235;28;20050;-63
2022/09/22 11:45:53;;;;;;;2.33;1.38;;;;;;;15.21;59.12;102150.34;5121507;28;20061;-62
2022/09/22 11:48:35;;;;;;;1.52;1.00;;;;;;;15.25;59.76;102155.09;5119104;28;20119;-62
2022/09/22 11:51:17;;;;;;;4.60;1.42;;;;;;;15.30;59.65;102146.31;5115626;28;20052;-62
2022/09/22 11:54:14;;;;;;;3.40;1.40;;;;;;;15.35;59.70;102145.63;5119999;28;20047;-61
2022/09/22 11:56:44;;;;;;;3.88;1.27;;;;;;;15.39;59.82;102144.16;5123576;27;20047;-62
2022/09/22 11:59:28;;;;;;;2.50;1.20;;;;;;;15.45;60.07;102132.41;5123043;28;20059;-62